Time;durP1;ratioP1;P1;durP2;ratioP2;P2;SDS_P1;SDS_P2;PMS_P1;PMS_P2;Temp;Humidity;BMP_temperature;BMP_pressure;BME280_temperature;BME280_humidity;BME280_pressure;Samples;Min_cycle;Max_cycle;Signal;HPM_P1;HPM_P2
2022/06/02 00:00:16;;;;;;;;;;;;;;;13.79;48.27;100882.06;5005267;28;8493;-80
2022/06/02 00:03:00;;;;;;;;;;;;;;;13.75;48.27;100888.78;5015309;28;7062;-80
2022/06/02 00:05:51;;;;;;;;;;;;;;;13.69;49.33;100893.69;5041842;28;8436;-80
2022/06/02 00:08:58;;;;;;;;;;;;;;;13.62;48.51;100895.13;5046039;28;6866;-80
2022/06/02 00:11:55;;;;;;;;;;;;;;;13.57;48.58;100891.44;5042382;28;7329;-80
2022/06/02 00:14:31;;;;;;;;;;;;;;;13.50;49.63;100895.47;5041025;28;7859;-80
2022/06/02 00:17:16;;;;;;;;;;;;;;;13.45;49.17;100894.38;5025141;28;7854;-80
2022/06/02 00:20:26;;;;;;;;;;;;;;;13.40;49.87;100901.84;5024148;28;6832;-80
2022/06/02 00:23:23;;;;;;;;;;;;;;;13.34;49.35;100906.75;5016456;28;6832;-78
2022/06/02 00:26:27;;;;;;;;;;;;;;;13.27;49.05;100908.13;4978184;28;6999;-79
2022/06/02 00:29:33;;;;;;;;;;;;;;;13.22;49.60;100908.75;4996346;28;6976;-79
2022/06/02 00:32:07;;;;;;;;;;;;;;;13.14;49.77;100899.00;5012149;28;6804;-78
2022/06/02 00:35:05;;;;;;;;;;;;;;;13.11;49.60;100903.13;5007529;28;7746;-78
2022/06/02 00:37:49;;;;;;;;;;;;;;;13.04;49.57;100905.41;5040617;28;7743;-78
2022/06/02 00:40:20;;;;;;;;;;;;;;;13.01;49.94;100912.09;5023214;28;6891;-78
2022/06/02 00:43:30;;;;;;;;;;;;;;;12.97;50.67;100907.63;5035643;28;8442;-79
2022/06/02 00:46:07;;;;;;;;;;;;;;;12.92;50.50;100913.44;5035240;28;8710;-79
2022/06/02 00:49:09;;;;;;;;;;;;;;;12.92;50.95;100910.00;5038630;28;6957;-79
2022/06/02 00:51:40;;;;;;;;;;;;;;;12.89;50.88;100908.16;5039111;28;7166;-79
2022/06/02 00:57:37;;;;;;;;;;;;;;;12.89;51.25;100912.41;5020919;28;7075;-78
2022/06/02 01:00:48;;;;;;;;;;;;;;;12.91;51.60;100916.81;5019525;28;6968;-78
2022/06/02 01:03:20;;;;;;;;;;;;;;;12.90;51.34;100911.63;4989285;28;7025;-78
2022/06/02 01:05:59;;;;;;;;;;;;;;;12.90;51.61;100920.22;5009488;28;7176;-78
2022/06/02 01:08:37;;;;;;;;;;;;;;;12.87;51.21;100916.59;5022024;28;7012;-79
2022/06/02 01:11:27;;;;;;;;;;;;;;;12.84;51.79;100917.34;5038037;28;8056;-79
2022/06/02 01:14:18;;;;;;;;;;;;;;;12.81;51.07;100924.91;5039328;28;8083;-79
2022/06/02 01:17:16;;;;;;;;;;;;;;;12.75;51.34;100919.50;5023897;28;7011;-79
2022/06/02 01:20:11;;;;;;;;;;;;;;;12.72;51.29;100925.38;5040396;28;7226;-79
2022/06/02 01:23:00;;;;;;;;;;;;;;;12.69;51.81;100929.50;5024672;28;7649;-79
2022/06/02 01:26:18;;;;;;;;;;;;;;;12.69;51.58;100920.06;5024897;28;6980;-79
2022/06/02 01:28:59;;;;;;;;;;;;;;;12.67;51.91;100923.41;5022085;28;8098;-79
2022/06/02 01:32:02;;;;;;;;;;;;;;;12.64;51.63;100930.13;5002797;28;8491;-79
2022/06/02 01:35:10;;;;;;;;;;;;;;;12.57;51.48;100933.25;5024235;28;7205;-79
2022/06/02 01:38:06;;;;;;;;;;;;;;;12.52;51.82;100926.97;5021108;28;7217;-79
2022/06/02 01:40:45;;;;;;;;;;;;;;;12.46;52.41;100931.84;5028917;28;7208;-78
2022/06/02 01:43:36;;;;;;;;;;;;;;;12.42;52.15;100935.94;5024899;28;7067;-78
2022/06/02 01:46:34;;;;;;;;;;;;;;;12.38;52.58;100934.00;5008693;28;7069;-78
2022/06/02 01:49:34;;;;;;;;;;;;;;;12.38;52.67;100940.88;5005996;28;7668;-78
2022/06/02 01:52:11;;;;;;;;;;;;;;;12.35;52.35;100939.88;5026201;28;7283;-78
2022/06/02 01:55:42;;;;;;;;;;;;;;;12.32;52.59;100928.59;5029134;28;6961;-78
2022/06/02 01:58:40;;;;;;;;;;;;;;;12.27;52.43;100930.03;5043243;28;7172;-78
2022/06/02 02:01:32;;;;;;;;;;;;;;;12.22;53.03;100937.53;5034251;28;6828;-79
2022/06/02 02:04:10;;;;;;;;;;;;;;;12.17;52.81;100934.72;5041056;28;7219;-79
2022/06/02 02:07:03;;;;;;;;;;;;;;;12.15;53.25;100943.16;5009463;28;8737;-79
2022/06/02 02:10:07;;;;;;;;;;;;;;;12.14;53.16;100943.97;5021510;28;6808;-79
2022/06/02 02:13:20;;;;;;;;;;;;;;;12.13;53.54;100942.19;5037091;28;8706;-79
2022/06/02 02:16:01;;;;;;;;;;;;;;;12.11;53.19;100943.81;5036069;28;7200;-78
2022/06/02 02:18:52;;;;;;;;;;;;;;;12.13;53.48;100952.47;5037920;28;7867;-79
2022/06/02 02:21:50;;;;;;;;;;;;;;;12.12;53.58;100943.00;4990521;28;9471;-79
2022/06/02 02:24:42;;;;;;;;;;;;;;;12.10;53.92;100948.06;5038157;28;7310;-79
2022/06/02 02:27:26;;;;;;;;;;;;;;;12.08;53.24;100947.09;5032142;28;6851;-78
2022/06/02 02:30:08;;;;;;;;;;;;;;;12.05;53.54;100952.09;5019460;28;6980;-78
2022/06/02 02:32:49;;;;;;;;;;;;;;;12.01;53.59;100945.00;5013202;28;8314;-79
2022/06/02 02:35:33;;;;;;;;;;;;;;;11.98;53.69;100945.75;5021201;28;7019;-78
2022/06/02 02:38:18;;;;;;;;;;;;;;;11.97;54.30;100953.34;5015485;28;7075;-78
2022/06/02 02:40:46;;;;;;;;;;;;;;;11.98;54.41;100945.75;5032598;28;6979;-78
2022/06/02 02:43:27;;;;;;;;;;;;;;;11.99;54.33;100951.75;5034257;28;7000;-78
2022/06/02 02:46:09;;;;;;;;;;;;;;;12.00;54.07;100951.84;5033027;28;7542;-78
2022/06/02 02:49:09;;;;;;;;;;;;;;;12.01;54.65;100951.03;5031949;28;7855;-79
2022/06/02 02:52:04;;;;;;;;;;;;;;;11.98;54.28;100948.31;5017206;28;7234;-79
2022/06/02 02:54:44;;;;;;;;;;;;;;;11.97;54.06;100951.66;5031273;28;6975;-79
2022/06/02 02:57:35;;;;;;;;;;;;;;;11.93;53.81;100948.06;5021987;28;6820;-79
2022/06/02 03:00:28;;;;;;;;;;;;;;;11.91;53.91;100946.22;5013685;28;7008;-79
2022/06/02 03:03:16;;;;;;;;;;;;;;;11.88;53.80;100951.19;5031505;28;7026;-79
2022/06/02 03:06:20;;;;;;;;;;;;;;;11.84;54.08;100959.53;5030746;28;6883;-79
2022/06/02 03:09:12;;;;;;;;;;;;;;;11.77;53.94;100960.91;5016827;28;6827;-78
2022/06/02 03:11:54;;;;;;;;;;;;;;;11.72;53.72;100964.91;5030959;28;8802;-78
2022/06/02 03:15:10;;;;;;;;;;;;;;;11.69;54.14;100964.75;5037388;28;8881;-79
2022/06/02 03:17:43;;;;;;;;;;;;;;;11.65;54.66;100972.31;5021940;28;6816;-79
2022/06/02 03:20:41;;;;;;;;;;;;;;;11.64;54.88;100973.13;5040174;28;6969;-79
2022/06/02 03:23:49;;;;;;;;;;;;;;;11.63;54.67;100971.31;5011733;28;7203;-79
2022/06/02 03:26:48;;;;;;;;;;;;;;;11.62;54.51;100963.56;5026518;28;7168;-79
2022/06/02 03:29:44;;;;;;;;;;;;;;;11.60;54.88;100970.31;5020157;28;6819;-79
2022/06/02 03:32:33;;;;;;;;;;;;;;;11.58;54.75;100969.31;5017478;28;8623;-79
2022/06/02 03:35:13;;;;;;;;;;;;;;;11.56;54.77;100974.41;5021918;28;7195;-79
2022/06/02 03:38:13;;;;;;;;;;;;;;;11.56;54.79;100981.19;5023375;28;8331;-79
2022/06/02 03:41:20;;;;;;;;;;;;;;;11.52;54.92;100983.63;5036257;28;8439;-79
2022/06/02 03:44:26;;;;;;;;;;;;;;;11.50;55.26;100981.75;5023746;28;7031;-79
2022/06/02 03:47:24;;;;;;;;;;;;;;;11.50;55.08;100987.78;5021098;28;7030;-79
2022/06/02 03:50:06;;;;;;;;;;;;;;;11.56;55.27;100989.81;5003519;28;7198;-77
2022/06/02 03:53:34;;;;;;;;;;;;;;;11.60;55.24;100990.84;5022253;28;6996;-77
2022/06/02 03:56:42;;;;;;;;;;;;;;;11.66;55.22;100994.63;4974921;28;7444;-78
2022/06/02 03:59:30;;;;;;;;;;;;;;;11.70;55.09;100995.66;5016742;28;6966;-78
2022/06/02 04:02:10;;;;;;;;;;;;;;;11.72;54.86;100996.63;5037335;28;6980;-79
2022/06/02 04:04:57;;;;;;;;;;;;;;;11.76;55.21;101002.81;5037534;28;6992;-79
2022/06/02 04:07:44;;;;;;;;;;;;;;;11.80;55.20;101008.19;5022257;28;8520;-79
2022/06/02 04:10:58;;;;;;;;;;;;;;;11.85;55.19;101007.53;5035191;28;8913;-79
2022/06/02 04:14:23;;;;;;;;;;;;;;;11.87;55.01;101008.50;5035421;28;6819;-78
2022/06/02 04:17:17;;;;;;;;;;;;;;;11.95;55.93;101009.78;5032291;28;8139;-79
2022/06/02 04:23:45;;;;;;;;;;;;;;;12.62;57.78;101016.63;5024632;28;7065;-79
2022/06/02 04:26:42;;;;;;;;;;;;;;;13.04;57.02;101026.34;5010462;28;8250;-79
2022/06/02 04:29:43;;;;;;;;;;;;;;;13.38;57.37;101018.47;5022901;28;7201;-79
2022/06/02 04:32:57;;;;;;;;;;;;;;;13.79;57.25;101021.19;4993691;28;8138;-79
2022/06/02 04:35:43;;;;;;;;;;;;;;;14.24;58.32;101023.13;5026657;28;7187;-79
2022/06/02 04:38:57;;;;;;;;;;;;;;;14.75;58.66;101027.00;5038619;28;6887;-79
2022/06/02 04:41:45;;;;;;;;;;;;;;;15.37;57.92;101021.66;5001740;28;7546;-79
2022/06/02 04:44:39;;;;;;;;;;;;;;;15.94;56.86;101022.94;5028069;28;6904;-78
2022/06/02 04:47:23;;;;;;;;;;;;;;;16.52;56.09;101010.25;5040764;28;8490;-79
2022/06/02 04:50:14;;;;;;;;;;;;;;;17.04;55.87;101013.69;5042565;28;7043;-78
2022/06/02 04:52:54;;;;;;;;;;;;;;;17.55;54.78;101010.88;5046513;28;7162;-79
2022/06/02 04:56:20;;;;;;;;;;;;;;;18.05;53.51;101005.34;5031759;28;6824;-79
2022/06/02 04:59:26;;;;;;;;;;;;;;;18.57;52.64;101000.63;5007958;28;12602;-79
2022/06/02 05:02:14;;;;;;;;;;;;;;;18.95;52.20;100999.81;5013579;28;6824;-79
2022/06/02 05:04:58;;;;;;;;;;;;;;;19.22;50.74;100997.81;5025544;28;6784;-80
2022/06/02 05:08:07;;;;;;;;;;;;;;;19.48;50.29;100995.75;5025454;28;7192;-79
2022/06/02 05:11:16;;;;;;;;;;;;;;;19.71;50.29;100991.03;5025870;28;7216;-78
2022/06/02 05:14:28;;;;;;;;;;;;;;;20.02;50.13;100993.38;5004787;28;7512;-78
2022/06/02 05:17:36;;;;;;;;;;;;;;;20.39;49.33;100994.03;5041326;28;6803;-77
2022/06/02 05:20:22;;;;;;;;;;;;;;;20.83;48.77;100983.47;5022879;28;7229;-78
2022/06/02 05:23:12;;;;;;;;;;;;;;;21.17;47.92;100990.03;5038758;28;7300;-78
2022/06/02 05:26:01;;;;;;;;;;;;;;;21.57;47.54;100989.63;5025948;28;8769;-78
2022/06/02 05:29:07;;;;;;;;;;;;;;;21.94;46.82;100996.16;5027376;28;7540;-78
2022/06/02 05:32:13;;;;;;;;;;;;;;;22.33;46.24;100993.06;5038969;28;8386;-78
2022/06/02 05:34:51;;;;;;;;;;;;;;;22.69;45.65;101005.53;5023938;28;8419;-78
2022/06/02 05:37:47;;;;;;;;;;;;;;;22.98;44.61;100989.19;5040697;28;8848;-78
2022/06/02 05:40:58;;;;;;;;;;;;;;;23.15;44.04;101002.38;5021302;28;6823;-78
2022/06/02 05:44:10;;;;;;;;;;;;;;;23.23;43.25;101005.00;5019111;28;8013;-78
2022/06/02 05:47:06;;;;;;;;;;;;;;;23.23;42.79;101007.63;5041624;28;6864;-79
2022/06/02 05:50:12;;;;;;;;;;;;;;;23.09;42.22;101004.94;5038868;28;7337;-79
2022/06/02 05:52:55;;;;;;;;;;;;;;;22.93;42.19;101027.50;5019052;28;6973;-78
2022/06/02 05:55:46;;;;;;;;;;;;;;;22.58;40.96;101023.75;5036976;28;6966;-76
2022/06/02 05:59:30;;;;;;;;;;;;;;;22.09;40.88;101030.25;5023375;28;6998;-76
2022/06/02 06:02:29;;;;;;;;;;;;;;;21.46;41.06;101033.84;4998213;28;7265;-77
2022/06/02 06:05:27;;;;;;;;;;;;;;;21.04;41.10;101046.28;5013277;28;8650;-77
2022/06/02 06:08:42;;;;;;;;;;;;;;;20.66;41.15;101044.78;4991172;28;6972;-77
2022/06/02 06:11:47;;;;;;;;;;;;;;;20.27;41.35;101045.84;5039990;28;6820;-77
2022/06/02 06:15:14;;;;;;;;;;;;;;;19.95;42.03;101048.72;5037105;28;6815;-76
2022/06/02 06:18:08;;;;;;;;;;;;;;;19.67;42.51;101054.22;4973336;28;7045;-76
2022/06/02 06:20:57;;;;;;;;;;;;;;;19.44;42.66;101058.94;4975069;28;6819;-76
2022/06/02 06:23:45;;;;;;;;;;;;;;;19.28;42.43;101071.56;5019876;28;6812;-76
2022/06/02 06:26:37;;;;;;;;;;;;;;;19.10;42.86;101063.34;5025296;28;8517;-76
2022/06/02 06:29:50;;;;;;;;;;;;;;;19.00;42.86;101073.53;5008239;28;8411;-76
2022/06/02 06:33:00;;;;;;;;;;;;;;;18.87;43.47;101074.06;5002726;28;8293;-76
2022/06/02 06:35:57;;;;;;;;;;;;;;;18.79;43.35;101072.97;5017009;28;6812;-76
2022/06/02 06:38:51;;;;;;;;;;;;;;;18.74;43.88;101075.47;5019880;28;7975;-76
2022/06/02 06:41:40;;;;;;;;;;;;;;;18.71;43.65;101078.84;5016191;28;6835;-76
2022/06/02 06:44:46;;;;;;;;;;;;;;;18.69;43.88;101074.47;5022137;28;7074;-76
2022/06/02 06:47:38;;;;;;;;;;;;;;;18.66;44.12;101080.47;5037353;28;8003;-77
2022/06/02 06:50:18;;;;;;;;;;;;;;;18.70;44.12;101086.63;5039336;28;6831;-76
2022/06/02 06:53:15;;;;;;;;;;;;;;;18.74;44.58;101084.16;5036783;28;6980;-76
2022/06/02 06:56:08;;;;;;;;;;;;;;;18.78;44.38;101079.88;5013085;28;7190;-76
2022/06/02 06:59:12;;;;;;;;;;;;;;;18.96;45.34;101076.88;5018929;28;7224;-76
2022/06/02 07:01:59;;;;;;;;;;;;;;;19.28;45.14;101081.97;5034616;28;7445;-76
2022/06/02 07:05:07;;;;;;;;;;;;;;;19.73;45.32;101074.28;5023122;28;7148;-76
2022/06/02 07:07:51;;;;;;;;;;;;;;;20.31;45.04;101068.50;5002498;28;6845;-76
2022/06/02 07:10:37;;;;;;;;;;;;;;;20.87;45.03;101068.59;5035904;28;8361;-76
2022/06/02 07:13:33;;;;;;;;;;;;;;;21.51;44.17;101063.44;5019849;28;7060;-76
2022/06/02 07:16:56;;;;;;;;;;;;;;;22.09;43.37;101066.78;5019951;28;7476;-76
2022/06/02 07:19:39;;;;;;;;;;;;;;;22.68;42.17;101072.59;5003303;28;6999;-76
2022/06/02 07:22:23;;;;;;;;;;;;;;;23.08;41.78;101066.81;5033971;28;6823;-76
2022/06/02 07:25:38;;;;;;;;;;;;;;;23.53;40.85;101067.09;5024594;28;6807;-76
2022/06/02 07:28:18;;;;;;;;;;;;;;;23.93;40.45;101057.66;5033994;28;6815;-75
2022/06/02 07:31:12;;;;;;;;;;;;;;;24.27;39.59;101063.88;5036628;28;6808;-76
2022/06/02 07:33:53;;;;;;;;;;;;;;;24.67;38.92;101060.41;5035023;28;6827;-77
2022/06/02 07:36:46;;;;;;;;;;;;;;;24.93;38.47;101061.31;5020691;28;6792;-77
2022/06/02 07:39:48;;;;;;;;;;;;;;;25.28;38.45;101062.97;5020188;28;7279;-76
2022/06/02 07:42:51;;;;;;;;;;;;;;;25.71;37.27;101061.13;5020681;28;7029;-76
2022/06/02 07:45:25;;;;;;;;;;;;;;;25.97;36.16;101050.47;5034515;28;6891;-77
2022/06/02 07:48:25;;;;;;;;;;;;;;;26.01;35.54;101048.69;5022553;28;6811;-76
2022/06/02 07:51:25;;;;;;;;;;;;;;;26.04;35.35;101039.06;5022745;28;6792;-76
2022/06/02 07:54:23;;;;;;;;;;;;;;;26.00;35.26;101039.06;5028734;28;7877;-77
2022/06/02 07:57:46;;;;;;;;;;;;;;;25.98;34.92;101054.84;5032942;28;7256;-76
2022/06/02 08:00:25;;;;;;;;;;;;;;;25.91;34.60;101059.25;5012104;28;6994;-76
2022/06/02 08:03:08;;;;;;;;;;;;;;;25.99;33.77;101051.31;5032232;28;6892;-76
2022/06/02 08:05:54;;;;;;;;;;;;;;;25.98;34.03;101051.31;5023472;28;6803;-76
2022/06/02 08:08:29;;;;;;;;;;;;;;;25.98;33.66;101051.31;5040867;28;6816;-76
2022/06/02 08:11:19;;;;;;;;;;;;;;;26.14;33.72;101055.59;5021259;28;6824;-76
2022/06/02 08:13:59;;;;;;;;;;;;;;;26.36;33.80;101063.38;5042093;28;6927;-76
2022/06/02 08:17:13;;;;;;;;;;;;;;;26.54;33.53;101057.13;5033100;28;8226;-76
2022/06/02 08:20:11;;;;;;;;;;;;;;;26.74;32.84;101049.03;5025047;28;7091;-76
2022/06/02 08:23:14;;;;;;;;;;;;;;;26.89;32.61;101052.47;5025620;28;7238;-76
2022/06/02 08:25:54;;;;;;;;;;;;;;;26.98;32.23;101068.16;5019735;28;7260;-76
2022/06/02 08:28:48;;;;;;;;;;;;;;;26.87;31.86;101065.56;5024240;28;7290;-76
2022/06/02 08:31:32;;;;;;;;;;;;;;;26.81;31.49;101064.75;5026657;28;7622;-76
2022/06/02 08:34:24;;;;;;;;;;;;;;;26.69;31.13;101060.47;5023292;28;6890;-76
2022/06/02 08:37:09;;;;;;;;;;;;;;;26.23;30.84;101072.22;5040384;28;6895;-76
2022/06/02 08:39:41;;;;;;;;;;;;;;;25.64;30.86;101081.25;5009730;28;7236;-76
2022/06/02 08:42:46;;;;;;;;;;;;;;;25.55;32.27;101079.53;5040242;28;7885;-77
2022/06/02 08:45:26;;;;;;;;;;;;;;;26.21;32.06;101074.84;5043810;28;7246;-76
2022/06/02 08:48:32;;;;;;;;;;;;;;;27.19;31.03;101092.47;5018691;28;7735;-76
2022/06/02 08:51:24;;;;;;;;;;;;;;;28.12;30.59;101080.84;5026951;28;6892;-77
2022/06/02 08:54:17;;;;;;;;;;;;;;;29.13;28.75;101081.00;5013232;28;6799;-76
2022/06/02 08:57:37;;;;;;;;;;;;;;;30.02;28.49;101076.56;5024397;28;7349;-76
2022/06/02 09:00:25;;;;;;;;;;;;;;;30.64;27.83;101072.44;5001902;28;7156;-76
2022/06/02 09:03:15;;;;;;;;;;;;;;;31.26;27.54;101080.59;5003398;28;7030;-77
2022/06/02 09:06:29;;;;;;;;;;;;;;;31.90;26.94;101063.75;5024749;28;6966;-77
2022/06/02 09:09:22;;;;;;;;;;;;;;;32.23;26.35;101058.25;5024149;28;7120;-77
2022/06/02 09:12:35;;;;;;;;;;;;;;;32.23;25.80;101066.22;5037610;28;7927;-76
2022/06/02 09:15:34;;;;;;;;;;;;;;;32.04;25.69;101071.25;5026695;28;8379;-76
2022/06/02 09:18:28;;;;;;;;;;;;;;;32.10;25.65;101065.75;5035347;28;6879;-77
2022/06/02 09:21:14;;;;;;;;;;;;;;;32.18;25.59;101068.16;5036476;28;6823;-77
2022/06/02 09:24:06;;;;;;;;;;;;;;;32.53;25.12;101073.25;5034459;28;6919;-77
2022/06/02 09:26:52;;;;;;;;;;;;;;;33.00;24.89;101072.53;5037820;28;7007;-78
2022/06/02 09:29:31;;;;;;;;;;;;;;;33.35;23.92;101066.84;5040470;28;6815;-77
2022/06/02 09:32:33;;;;;;;;;;;;;;;33.41;23.47;101063.09;5024102;28;8228;-77
2022/06/02 09:35:09;;;;;;;;;;;;;;;33.30;23.61;101069.69;5041911;28;6828;-77
2022/06/02 09:38:26;;;;;;;;;;;;;;;33.39;23.13;101056.06;5042003;28;7282;-77
2022/06/02 09:41:20;;;;;;;;;;;;;;;33.65;23.10;101061.31;4994740;28;6899;-77
2022/06/02 09:44:09;;;;;;;;;;;;;;;33.46;22.84;101061.16;5022007;28;7662;-77
2022/06/02 09:46:53;;;;;;;;;;;;;;;32.66;22.92;101060.44;5036575;28;7263;-77
2022/06/02 09:50:14;;;;;;;;;;;;;;;32.21;23.33;101061.88;5018687;28;8194;-77
2022/06/02 09:52:59;;;;;;;;;;;;;;;32.15;23.28;101065.59;5024123;28;7959;-77
2022/06/02 09:55:53;;;;;;;;;;;;;;;32.25;23.22;101060.88;5039553;28;6892;-77
2022/06/02 09:59:00;;;;;;;;;;;;;;;32.11;23.26;101063.97;5024849;28;6835;-77
2022/06/02 10:02:19;;;;;;;;;;;;;;;32.18;22.94;101073.47;5022472;28;7080;-77
2022/06/02 10:05:45;;;;;;;;;;;;;;;31.13;23.53;101070.31;5037049;28;7154;-77
2022/06/02 10:08:39;;;;;;;;;;;;;;;30.72;24.74;101064.38;4995087;28;7059;-77
2022/06/02 10:11:29;;;;;;;;;;;;;;;31.36;23.97;101060.03;5023459;28;7796;-77
2022/06/02 10:14:21;;;;;;;;;;;;;;;31.99;23.28;101054.63;5023591;28;7210;-77
2022/06/02 10:17:09;;;;;;;;;;;;;;;32.18;23.08;101046.97;5022438;28;7447;-77
2022/06/02 10:20:14;;;;;;;;;;;;;;;32.34;23.41;101047.31;5004162;28;6982;-77
2022/06/02 10:23:20;;;;;;;;;;;;;;;32.77;23.14;101047.66;5022601;28;6831;-77
2022/06/02 10:26:27;;;;;;;;;;;;;;;33.16;22.17;101046.28;5020937;28;7075;-77
2022/06/02 10:29:29;;;;;;;;;;;;;;;33.16;21.78;101040.97;5022938;28;6903;-76
2022/06/02 10:32:18;;;;;;;;;;;;;;;33.21;22.04;101033.72;5034680;28;9517;-76
2022/06/02 10:35:01;;;;;;;;;;;;;;;33.52;22.33;101031.72;5019240;28;6899;-76
2022/06/02 10:37:55;;;;;;;;;;;;;;;33.97;21.68;101031.75;5022722;28;7902;-76
2022/06/02 10:40:36;;;;;;;;;;;;;;;34.40;21.86;101035.31;5006159;28;6811;-76
2022/06/02 10:43:35;;;;;;;;;;;;;;;34.92;21.27;101036.66;5035092;28;6907;-76
2022/06/02 10:46:10;;;;;;;;;;;;;;;35.40;21.04;101030.97;5018183;28;6831;-77
2022/06/02 10:49:20;;;;;;;;;;;;;;;35.81;20.59;101035.28;5036472;28;6986;-76
2022/06/02 10:52:04;;;;;;;;;;;;;;;35.81;19.94;101025.47;4967677;28;7376;-76
2022/06/02 10:55:12;;;;;;;;;;;;;;;35.54;19.95;101033.88;5018693;28;6917;-77
2022/06/02 10:57:55;;;;;;;;;;;;;;;35.41;20.17;101035.38;5020799;28;8028;-77
2022/06/02 11:00:30;;;;;;;;;;;;;;;35.54;20.03;101025.00;5033694;28;6823;-77
2022/06/02 11:03:53;;;;;;;;;;;;;;;35.82;19.91;101021.03;5017778;28;6860;-76
2022/06/02 11:06:52;;;;;;;;;;;;;;;36.03;19.68;101018.22;5024459;28;6903;-76
2022/06/02 11:09:18;;;;;;;;;;;;;;;36.12;19.78;101026.69;5018280;28;7184;-77
2022/06/02 11:12:41;;;;;;;;;;;;;;;35.98;19.35;101026.47;5023517;28;7168;-77
2022/06/02 11:15:41;;;;;;;;;;;;;;;36.00;19.70;101014.78;5022307;28;6835;-77
2022/06/02 11:18:34;;;;;;;;;;;;;;;36.18;19.59;101013.97;5024239;28;6907;-77
2022/06/02 11:21:47;;;;;;;;;;;;;;;36.31;19.34;101015.03;5023612;28;6836;-77
2022/06/02 11:24:51;;;;;;;;;;;;;;;36.23;19.41;101006.59;5010209;28;6820;-77
2022/06/02 11:27:59;;;;;;;;;;;;;;;36.11;19.20;101011.59;5036292;28;7030;-76
2022/06/02 11:30:58;;;;;;;;;;;;;;;36.07;18.83;101002.03;5024172;28;7314;-76
2022/06/02 11:34:08;;;;;;;;;;;;;;;35.85;19.19;101003.09;5039705;28;6843;-76
2022/06/02 11:37:11;;;;;;;;;;;;;;;35.27;19.37;100999.59;5017988;28;6912;-77
2022/06/02 11:39:59;;;;;;;;;;;;;;;34.54;19.48;101007.28;5022268;28;6982;-77
2022/06/02 11:43:12;;;;;;;;;;;;;;;33.65;19.65;101000.22;5020545;28;7675;-76
2022/06/02 11:46:01;;;;;;;;;;;;;;;32.69;20.43;101009.91;5022446;28;7102;-76
2022/06/02 11:49:24;;;;;;;;;;;;;;;32.34;20.84;101006.66;5023846;28;7004;-76
2022/06/02 11:52:20;;;;;;;;;;;;;;;32.49;21.11;100998.22;5020146;28;7038;-77
2022/06/02 11:55:12;;;;;;;;;;;;;;;32.63;20.69;100994.19;5017434;28;9253;-77
2022/06/02 11:58:04;;;;;;;;;;;;;;;32.28;20.81;100984.75;5019411;28;7218;-77
2022/06/02 12:00:56;;;;;;;;;;;;;;;32.15;20.97;100986.06;5040809;28;6977;-77
2022/06/02 12:03:46;;;;;;;;;;;;;;;32.66;21.59;100972.88;5024488;28;6807;-77
2022/06/02 12:06:30;;;;;;;;;;;;;;;33.57;21.03;100965.97;5037206;28;6827;-77
2022/06/02 12:09:42;;;;;;;;;;;;;;;34.17;20.40;100968.00;5018828;28;7199;-77
2022/06/02 12:12:41;;;;;;;;;;;;;;;34.10;20.25;100963.88;5022724;28;6828;-77
2022/06/02 12:15:52;;;;;;;;;;;;;;;34.02;20.16;100961.53;5006740;28;7239;-77
2022/06/02 12:18:53;;;;;;;;;;;;;;;34.14;20.31;100953.94;5012480;28;6828;-77
2022/06/02 12:21:55;;;;;;;;;;;;;;;34.52;19.90;100947.91;4998401;28;7249;-77
2022/06/02 12:24:32;;;;;;;;;;;;;;;34.65;19.83;100943.78;5030997;28;8573;-77
2022/06/02 12:27:12;;;;;;;;;;;;;;;34.62;19.90;100936.84;5029806;28;6827;-77
2022/06/02 12:30:06;;;;;;;;;;;;;;;34.62;19.91;100943.94;5017664;28;7398;-77
2022/06/02 12:33:07;;;;;;;;;;;;;;;34.80;19.59;100938.72;5024067;28;6839;-77
2022/06/02 12:35:54;;;;;;;;;;;;;;;34.86;19.34;100935.75;5035497;28;8109;-78
2022/06/02 12:39:16;;;;;;;;;;;;;;;34.39;19.37;100936.94;5034566;28;7194;-78
2022/06/02 12:42:27;;;;;;;;;;;;;;;33.42;19.99;100932.91;5017330;28;7519;-77
2022/06/02 12:45:14;;;;;;;;;;;;;;;32.56;20.64;100951.13;5022595;28;6812;-77
2022/06/02 12:48:37;;;;;;;;;;;;;;;31.79;20.93;100939.50;5023449;28;7216;-77
2022/06/02 12:51:29;;;;;;;;;;;;;;;30.95;20.83;100954.41;4973890;28;7127;-77
2022/06/02 12:54:36;;;;;;;;;;;;;;;30.44;21.96;100952.19;5007276;28;6882;-77
2022/06/02 12:57:32;;;;;;;;;;;;;;;30.31;21.87;100956.94;5017138;28;6848;-77
2022/06/02 13:00:42;;;;;;;;;;;;;;;30.49;22.32;100949.44;5022882;28;6823;-77
2022/06/02 13:03:45;;;;;;;;;;;;;;;30.92;22.06;100942.09;5020882;28;6994;-77
2022/06/02 13:07:18;;;;;;;;;;;;;;;31.46;21.87;100939.69;5025311;28;7005;-77
2022/06/02 13:10:25;;;;;;;;;;;;;;;31.91;21.15;100937.38;5032743;28;6975;-77
2022/06/02 13:13:13;;;;;;;;;;;;;;;32.24;21.39;100937.19;5019823;28;6811;-77
2022/06/02 13:15:57;;;;;;;;;;;;;;;32.54;20.71;100935.25;5021121;28;8059;-77
2022/06/02 13:19:19;;;;;;;;;;;;;;;32.82;20.60;100923.63;5023387;28;6997;-77
2022/06/02 13:22:13;;;;;;;;;;;;;;;32.98;20.87;100925.75;5037724;28;7230;-76
2022/06/02 13:24:58;;;;;;;;;;;;;;;33.09;20.30;100925.34;5033808;28;7632;-76
2022/06/02 13:27:48;;;;;;;;;;;;;;;33.29;20.56;100910.41;5032016;28;6977;-77
2022/06/02 13:30:32;;;;;;;;;;;;;;;33.56;20.40;100921.75;5020866;28;7446;-77
2022/06/02 13:33:52;;;;;;;;;;;;;;;33.67;19.85;100921.31;5023463;28;8034;-77
2022/06/02 13:36:49;;;;;;;;;;;;;;;33.65;20.43;100923.16;5020813;28;6815;-77
2022/06/02 13:39:26;;;;;;;;;;;;;;;33.80;20.23;100919.00;5031163;28;6816;-77
2022/06/02 13:42:21;;;;;;;;;;;;;;;34.01;20.03;100917.25;5019219;28;7254;-77
2022/06/02 13:45:26;;;;;;;;;;;;;;;33.97;19.74;100923.63;5023057;28;6811;-77
2022/06/02 13:48:25;;;;;;;;;;;;;;;33.79;19.79;100923.47;5025279;28;7071;-77
2022/06/02 13:51:27;;;;;;;;;;;;;;;33.69;19.84;100907.94;5023191;28;10480;-77
2022/06/02 13:57:43;;;;;;;;;;;;;;;33.60;19.52;100912.72;5022088;28;7143;-77
2022/06/02 14:00:55;;;;;;;;;;;;;;;33.43;19.09;100909.88;5024641;28;6811;-77
2022/06/02 14:03:59;;;;;;;;;;;;;;;33.25;19.37;100905.22;5024846;28;6819;-76
2022/06/02 14:06:30;;;;;;;;;;;;;;;33.17;19.52;100903.78;5013965;28;7295;-77
2022/06/02 14:09:41;;;;;;;;;;;;;;;32.93;19.86;100902.03;5041380;28;7361;-77
2022/06/02 14:12:25;;;;;;;;;;;;;;;32.71;19.82;100896.63;5034280;28;6812;-77
2022/06/02 14:15:21;;;;;;;;;;;;;;;32.54;19.90;100895.44;5022757;28;6807;-77
2022/06/02 14:18:21;;;;;;;;;;;;;;;32.37;20.12;100908.50;5021655;28;6978;-77
2022/06/02 14:21:26;;;;;;;;;;;;;;;32.16;20.40;100905.66;5038133;28;7207;-77
2022/06/02 14:24:08;;;;;;;;;;;;;;;31.92;19.99;100900.25;5023671;28;6828;-77
2022/06/02 14:27:10;;;;;;;;;;;;;;;31.72;20.21;100901.75;5018897;28;7184;-77
2022/06/02 14:30:12;;;;;;;;;;;;;;;31.44;20.83;100902.63;5025666;28;6815;-76
2022/06/02 14:33:10;;;;;;;;;;;;;;;31.31;20.36;100901.31;5018748;28;6820;-76
2022/06/02 14:35:44;;;;;;;;;;;;;;;31.24;20.21;100892.69;5018938;28;6824;-77
2022/06/02 14:38:28;;;;;;;;;;;;;;;31.17;20.72;100896.41;5021953;28;7078;-77
2022/06/02 14:41:27;;;;;;;;;;;;;;;31.16;20.89;100895.53;5040355;28;6804;-76
2022/06/02 14:44:05;;;;;;;;;;;;;;;31.17;20.87;100886.66;5022117;28;6803;-76
2022/06/02 14:46:53;;;;;;;;;;;;;;;31.25;21.13;100893.53;5035494;28;7688;-77
2022/06/02 14:49:34;;;;;;;;;;;;;;;31.28;20.88;100888.16;5018153;28;7643;-77
2022/06/02 14:52:43;;;;;;;;;;;;;;;31.17;21.22;100894.59;5016494;28;8075;-77
2022/06/02 14:55:41;;;;;;;;;;;;;;;31.06;21.47;100882.63;5017857;28;6904;-77
2022/06/02 14:58:28;;;;;;;;;;;;;;;30.94;21.17;100892.66;4999756;28;6888;-76
2022/06/02 15:01:28;;;;;;;;;;;;;;;30.85;21.34;100888.50;5020998;28;7141;-76
2022/06/02 15:04:33;;;;;;;;;;;;;;;30.69;20.83;100881.94;4996343;28;8433;-77
2022/06/02 15:07:46;;;;;;;;;;;;;;;30.58;21.46;100883.06;5020780;28;8110;-76
2022/06/02 15:10:54;;;;;;;;;;;;;;;30.50;21.10;100879.78;5021692;28;6812;-76
2022/06/02 15:13:55;;;;;;;;;;;;;;;30.42;21.00;100876.47;5017757;28;6922;-76
2022/06/02 15:16:59;;;;;;;;;;;;;;;30.34;21.89;100872.28;5021809;28;7212;-76
2022/06/02 15:19:50;;;;;;;;;;;;;;;30.20;21.79;100879.69;5020364;28;7038;-76
2022/06/02 15:22:29;;;;;;;;;;;;;;;30.03;22.04;100873.03;5019761;28;6824;-76
2022/06/02 15:25:18;;;;;;;;;;;;;;;29.94;21.52;100873.31;5036011;28;7947;-76